createdAt,value
2018-08-03T00:01:38.443Z,2.60
2018-08-03T00:04:07.517Z,2.70
2018-08-03T00:06:36.372Z,2.70
2018-08-03T00:09:07.896Z,2.40
2018-08-03T00:11:37.513Z,2.80
2018-08-03T00:14:06.675Z,2.93
2018-08-03T00:16:35.742Z,5.90
2018-08-03T00:19:04.585Z,3.50
2018-08-03T00:21:33.520Z,4.90
2018-08-03T00:24:03.176Z,3.00
2018-08-03T00:26:32.191Z,3.10
2018-08-03T00:29:01.381Z,3.53
2018-08-03T00:31:30.450Z,4.00
2018-08-03T00:33:59.519Z,4.47
2018-08-03T00:36:28.667Z,3.20
2018-08-03T00:38:57.767Z,2.70
2018-08-03T00:41:26.870Z,2.93
2018-08-03T00:43:55.930Z,2.90
2018-08-03T00:46:24.973Z,2.30
2018-08-03T00:48:53.887Z,2.90
2018-08-03T00:51:22.581Z,2.60
2018-08-03T00:53:51.355Z,2.40
2018-08-03T00:56:20.123Z,2.87
2018-08-03T00:58:53.516Z,2.87
2018-08-03T01:01:22.627Z,2.30
2018-08-03T01:03:52.208Z,2.70
2018-08-03T01:06:21.487Z,2.80
2018-08-03T01:08:50.553Z,2.80
2018-08-03T01:11:19.635Z,3.03
2018-08-03T01:13:48.738Z,2.70
2018-08-03T01:16:17.782Z,2.80
2018-08-03T01:18:46.795Z,2.50
2018-08-03T01:21:15.583Z,2.80
2018-08-03T01:23:44.531Z,2.80
2018-08-03T01:26:13.944Z,3.43
2018-08-03T01:28:42.997Z,3.17
2018-08-03T01:31:12.077Z,3.30
2018-08-03T01:33:41.192Z,3.03
2018-08-03T01:36:10.293Z,3.20
2018-08-03T01:38:39.364Z,3.30
2018-08-03T01:41:08.484Z,2.90
2018-08-03T01:43:38.214Z,2.90
2018-08-03T01:46:07.310Z,2.73
2018-08-03T01:48:36.374Z,3.00
2018-08-03T01:51:05.448Z,2.63
2018-08-03T01:53:34.524Z,2.97
2018-08-03T01:56:03.351Z,2.70
2018-08-03T01:58:32.263Z,2.70
2018-08-03T02:01:01.356Z,2.40
2018-08-03T02:03:30.366Z,3.07
2018-08-03T02:05:59.463Z,2.70
2018-08-03T02:08:28.499Z,2.53
2018-08-03T02:10:57.536Z,2.70
2018-08-03T02:13:26.580Z,2.80
2018-08-03T02:15:55.667Z,2.50
2018-08-03T02:18:24.693Z,3.03
2018-08-03T02:20:53.781Z,2.77
2018-08-03T02:23:22.884Z,2.50
2018-08-03T02:25:51.943Z,2.60
2018-08-03T02:28:21.083Z,3.03
2018-08-03T02:30:50.221Z,3.03
2018-08-03T02:33:19.353Z,2.87
2018-08-03T02:35:48.480Z,2.83
2018-08-03T02:38:17.575Z,3.20
2018-08-03T02:40:46.613Z,2.90
2018-08-03T02:43:15.688Z,2.33
2018-08-03T02:45:44.535Z,2.47
2018-08-03T02:48:13.436Z,2.40
2018-08-03T02:50:42.557Z,2.20
2018-08-03T02:53:11.471Z,2.73
2018-08-03T02:55:40.190Z,2.73
2018-08-03T02:58:09.128Z,2.53
2018-08-03T03:00:37.962Z,2.90
2018-08-03T03:03:06.912Z,2.77
2018-08-03T03:05:36.703Z,2.70
2018-08-03T03:08:05.733Z,2.50
2018-08-03T03:10:34.739Z,2.67
2018-08-03T03:13:03.864Z,2.20
2018-08-03T03:15:32.964Z,2.70
2018-08-03T03:18:02.048Z,2.70
2018-08-03T03:20:31.094Z,3.10
2018-08-03T03:23:00.131Z,2.33
2018-08-03T03:25:29.253Z,2.53
2018-08-03T03:27:58.306Z,2.80
2018-08-03T03:30:27.388Z,2.50
2018-08-03T03:32:56.525Z,2.60
2018-08-03T03:35:25.630Z,2.67
2018-08-03T03:37:54.711Z,2.53
2018-08-03T03:40:23.747Z,2.70
2018-08-03T03:42:52.636Z,2.73
2018-08-03T03:45:21.689Z,2.60
2018-08-03T03:47:50.683Z,2.63
2018-08-03T03:50:19.791Z,2.40
2018-08-03T03:52:48.896Z,2.97
2018-08-03T03:55:17.974Z,2.83
2018-08-03T03:57:47.025Z,2.63
2018-08-03T04:00:16.037Z,2.97
2018-08-03T04:02:45.173Z,2.60
2018-08-03T04:05:13.986Z,3.13
2018-08-03T04:07:42.866Z,3.30
2018-08-03T04:10:11.850Z,2.80
2018-08-03T04:12:40.959Z,2.60
2018-08-03T04:15:10.264Z,2.47
2018-08-03T04:17:39.299Z,2.50
2018-08-03T04:20:08.419Z,2.57
2018-08-03T04:22:37.292Z,2.60
2018-08-03T04:25:06.498Z,2.47
2018-08-03T04:27:35.918Z,2.60
2018-08-03T04:30:05.616Z,2.40
2018-08-03T04:32:34.739Z,2.50
2018-08-03T04:35:03.812Z,2.50
2018-08-03T04:37:32.902Z,2.57
2018-08-03T04:40:01.973Z,2.20
2018-08-03T04:42:31.140Z,2.67
2018-08-03T04:44:59.956Z,3.03
2018-08-03T04:47:28.907Z,2.70
2018-08-03T04:49:58.059Z,2.70
2018-08-03T04:52:27.118Z,2.67
2018-08-03T04:54:56.118Z,3.07
2018-08-03T04:57:25.217Z,3.20
2018-08-03T04:59:54.298Z,2.90
2018-08-03T05:02:23.404Z,2.90
2018-08-03T05:04:52.551Z,2.83
2018-08-03T05:07:22.100Z,2.70
2018-08-03T05:09:51.010Z,2.70
2018-08-03T05:12:20.149Z,2.80
2018-08-03T05:14:48.986Z,3.00
2018-08-03T05:17:17.973Z,3.17
2018-08-03T05:19:47.689Z,2.97
2018-08-03T05:22:17.029Z,2.80
2018-08-03T05:24:45.931Z,3.07
2018-08-03T05:27:14.734Z,2.77
2018-08-03T05:29:43.554Z,2.77
2018-08-03T05:32:12.889Z,2.50
2018-08-03T05:34:42.261Z,4.10
2018-08-03T05:37:11.631Z,2.87
2018-08-03T05:39:40.714Z,3.07
2018-08-03T05:42:09.955Z,2.70
2018-08-03T05:44:39.088Z,2.70
2018-08-03T05:47:08.349Z,2.57
2018-08-03T05:49:37.339Z,2.83
2018-08-03T05:52:06.291Z,2.80
2018-08-03T05:54:35.886Z,2.70
2018-08-03T05:57:05.591Z,2.50
2018-08-03T05:59:35.356Z,2.50
2018-08-03T06:02:05.577Z,2.97
2018-08-03T06:04:34.670Z,2.83
2018-08-03T06:07:03.757Z,2.53
2018-08-03T06:09:32.843Z,2.50
2018-08-03T06:12:02.163Z,2.70
2018-08-03T06:14:31.268Z,2.80
2018-08-03T06:17:00.389Z,2.50
2018-08-03T06:19:29.586Z,2.60
2018-08-03T06:21:58.751Z,3.50
2018-08-03T06:24:27.844Z,2.77
2018-08-03T06:26:56.960Z,2.40
2018-08-03T06:29:26.201Z,3.00
2018-08-03T06:31:55.168Z,2.50
2018-08-03T06:34:24.212Z,2.30
2018-08-03T06:36:53.609Z,2.40
2018-08-03T06:39:22.743Z,2.37
2018-08-03T06:41:52.000Z,2.60
2018-08-03T06:44:20.968Z,2.20
2018-08-03T06:46:50.047Z,2.53
2018-08-03T06:49:19.107Z,2.83
2018-08-03T06:51:47.957Z,2.77
2018-08-03T06:54:16.898Z,2.67
2018-08-03T06:56:45.886Z,2.77
2018-08-03T06:59:14.892Z,2.50
2018-08-03T07:01:44.002Z,2.53
2018-08-03T07:04:13.119Z,2.93
2018-08-03T07:06:42.158Z,2.70
2018-08-03T07:09:12.965Z,2.90
2018-08-03T07:11:43.409Z,2.37
2018-08-03T07:14:13.429Z,2.83
2018-08-03T07:16:42.265Z,2.57
2018-08-03T07:19:11.296Z,2.70
2018-08-03T07:21:40.402Z,2.43
2018-08-03T07:24:09.575Z,2.53
2018-08-03T07:26:38.584Z,2.13
2018-08-03T07:29:07.419Z,2.40
2018-08-03T07:31:36.407Z,2.23
2018-08-03T07:34:05.420Z,2.40
2018-08-03T07:36:34.828Z,2.30
2018-08-03T07:39:05.580Z,2.40
2018-08-03T07:41:35.317Z,2.60
2018-08-03T07:44:04.017Z,2.80
2018-08-03T07:46:32.799Z,3.37
2018-08-03T07:49:01.566Z,3.00
2018-08-03T07:51:30.596Z,2.63
2018-08-03T07:54:00.337Z,2.57
2018-08-03T07:56:29.476Z,2.73
2018-08-03T07:58:58.721Z,2.20
2018-08-03T08:01:27.798Z,2.87
2018-08-03T08:03:56.870Z,2.27
2018-08-03T08:06:25.977Z,2.80
2018-08-03T08:08:55.100Z,2.50
2018-08-03T08:11:24.192Z,2.57
2018-08-03T08:13:53.318Z,2.60
2018-08-03T08:16:22.204Z,2.30
2018-08-03T08:18:51.135Z,2.70
2018-08-03T08:21:20.261Z,4.07
2018-08-03T08:23:49.354Z,2.57
2018-08-03T08:26:18.518Z,2.50
2018-08-03T08:28:47.644Z,2.40
2018-08-03T08:31:16.748Z,2.80
2018-08-03T08:33:45.886Z,2.67
2018-08-03T08:36:15.208Z,2.30
2018-08-03T08:38:44.325Z,2.53
2018-08-03T08:41:13.801Z,2.50
2018-08-03T08:43:43.237Z,2.43
2018-08-03T08:46:12.236Z,2.40
2018-08-03T08:48:41.265Z,2.43
2018-08-03T08:51:10.343Z,2.27
2018-08-03T08:53:39.255Z,2.43
2018-08-03T08:56:08.178Z,2.30
2018-08-03T08:58:37.113Z,2.60
2018-08-03T09:01:06.565Z,2.50
2018-08-03T09:03:35.866Z,2.90
2018-08-03T09:06:05.572Z,2.40
2018-08-03T09:08:34.715Z,2.70
2018-08-03T09:11:03.878Z,3.00
2018-08-03T09:13:33.074Z,2.67
2018-08-03T09:16:02.000Z,2.77
2018-08-03T09:18:31.006Z,2.40
2018-08-03T09:21:00.116Z,2.70
2018-08-03T09:23:29.194Z,2.63
2018-08-03T09:25:58.431Z,2.90
2018-08-03T09:28:27.641Z,2.72
2018-08-03T09:30:57.125Z,2.80
2018-08-03T09:33:26.274Z,2.80
2018-08-03T09:35:55.110Z,2.53
2018-08-03T09:38:24.092Z,2.13
2018-08-03T09:40:53.204Z,2.00
2018-08-03T09:43:22.068Z,2.20
2018-08-03T09:45:51.108Z,2.40
2018-08-03T09:48:19.972Z,2.10
2018-08-03T09:50:48.990Z,2.37
2018-08-03T09:53:18.097Z,2.23
2018-08-03T09:55:47.148Z,2.70
2018-08-03T09:58:16.748Z,2.40
2018-08-03T10:00:51.409Z,2.70
2018-08-03T10:03:20.884Z,2.30
2018-08-03T10:05:49.933Z,2.57
2018-08-03T10:08:19.204Z,2.50
2018-08-03T10:10:48.634Z,2.90
2018-08-03T10:13:17.971Z,2.83
2018-08-03T10:15:46.983Z,2.90
2018-08-03T10:18:16.395Z,2.30
2018-08-03T10:20:45.422Z,2.40
2018-08-03T10:23:14.717Z,2.57
2018-08-03T10:25:44.818Z,2.60
2018-08-03T10:28:13.726Z,2.70
2018-08-03T10:30:42.610Z,2.50
2018-08-03T10:33:11.275Z,2.90
2018-08-03T10:35:40.292Z,2.90
2018-08-03T10:38:09.367Z,2.30
2018-08-03T10:40:38.332Z,2.23
2018-08-03T10:43:07.648Z,2.30
2018-08-03T10:45:36.991Z,2.30
2018-08-03T10:48:06.247Z,2.60
2018-08-03T10:50:36.158Z,2.10
2018-08-03T10:53:05.199Z,2.40
2018-08-03T10:55:34.319Z,2.37
2018-08-03T10:58:04.228Z,2.20
2018-08-03T11:00:33.478Z,2.50
2018-08-03T11:03:02.531Z,2.77
2018-08-03T11:05:31.629Z,2.53
2018-08-03T11:08:00.929Z,2.40
2018-08-03T11:10:29.961Z,2.80
2018-08-03T11:12:59.035Z,2.57
2018-08-03T11:15:28.022Z,2.70
2018-08-03T11:17:56.973Z,2.70
2018-08-03T11:20:26.093Z,2.33
2018-08-03T11:22:54.969Z,2.97
2018-08-03T11:25:23.919Z,2.63
2018-08-03T11:27:53.011Z,2.53
2018-08-03T11:30:22.037Z,2.60
2018-08-03T11:32:57.606Z,2.80
2018-08-03T11:35:26.680Z,2.67
2018-08-03T11:37:55.641Z,2.73
2018-08-03T11:40:24.736Z,2.60
2018-08-03T11:42:53.746Z,2.47
2018-08-03T11:45:22.799Z,2.37
2018-08-03T11:47:51.904Z,2.73
2018-08-03T11:50:21.049Z,2.40
2018-08-03T11:52:50.114Z,2.70
2018-08-03T11:55:19.181Z,2.73
2018-08-03T11:57:48.270Z,2.53
2018-08-03T12:00:17.318Z,2.77
2018-08-03T12:02:46.403Z,2.80
2018-08-03T12:05:15.571Z,2.50
2018-08-03T12:07:44.655Z,2.53
2018-08-03T12:10:13.717Z,2.53
2018-08-03T12:12:42.598Z,2.30
2018-08-03T12:15:11.571Z,2.53
2018-08-03T12:17:40.662Z,2.27
2018-08-03T12:20:09.882Z,2.50
2018-08-03T12:22:38.782Z,2.50
2018-08-03T12:25:08.331Z,2.40
2018-08-03T12:27:37.478Z,2.73
2018-08-03T12:30:06.361Z,2.80
2018-08-03T12:32:35.221Z,2.60
2018-08-03T12:35:04.171Z,2.63
2018-08-03T12:37:33.459Z,2.53
2018-08-03T12:40:06.229Z,2.80
2018-08-03T12:42:36.228Z,2.50
2018-08-03T12:45:05.236Z,3.10
2018-08-03T12:47:34.311Z,2.73
2018-08-03T12:50:03.447Z,3.43
2018-08-03T12:52:32.785Z,2.77
2018-08-03T12:55:01.976Z,2.90
2018-08-03T12:57:31.097Z,3.47
2018-08-03T12:59:59.919Z,2.80
2018-08-03T13:02:28.856Z,3.10
2018-08-03T13:04:57.958Z,2.90
2018-08-03T13:07:26.998Z,3.63
2018-08-03T13:09:56.112Z,3.50
2018-08-03T13:12:25.211Z,3.07
2018-08-03T13:14:54.476Z,3.10
2018-08-03T13:17:24.143Z,2.93
2018-08-03T13:19:53.598Z,3.37
2018-08-03T13:22:23.895Z,2.80
2018-08-03T13:24:53.452Z,3.63
2018-08-03T13:27:22.639Z,3.83
2018-08-03T13:29:51.710Z,6.00
2018-08-03T13:32:20.766Z,3.20
2018-08-03T13:34:49.692Z,3.53
2018-08-03T13:37:18.638Z,3.63
2018-08-03T13:39:48.836Z,3.40
2018-08-03T13:42:17.897Z,3.53
2018-08-03T13:44:46.984Z,3.30
2018-08-03T13:47:16.222Z,3.80
2018-08-03T13:49:45.320Z,3.60
2018-08-03T13:52:14.415Z,3.63
2018-08-03T13:54:43.511Z,3.60
2018-08-03T13:57:12.572Z,3.60
2018-08-03T13:59:42.903Z,3.60
2018-08-03T14:02:26.264Z,3.50
2018-08-03T14:04:55.920Z,3.50
2018-08-03T14:07:26.173Z,3.67
2018-08-03T14:09:55.199Z,3.53
2018-08-03T14:12:24.082Z,3.50
2018-08-03T14:14:53.074Z,4.77
2018-08-03T14:17:21.978Z,4.10
2018-08-03T14:19:50.696Z,3.87
2018-08-03T14:22:19.674Z,4.17
2018-08-03T14:24:48.702Z,4.10
2018-08-03T14:27:17.798Z,3.70
2018-08-03T14:29:46.895Z,4.00
2018-08-03T14:32:16.032Z,4.27
2018-08-03T14:34:45.088Z,3.73
2018-08-03T14:37:14.161Z,4.13
2018-08-03T14:39:43.239Z,4.40
2018-08-03T14:42:12.319Z,4.13
2018-08-03T14:44:41.430Z,3.50
2018-08-03T14:47:11.208Z,3.63
2018-08-03T14:49:41.238Z,3.80
2018-08-03T14:52:10.742Z,4.23
2018-08-03T14:54:39.859Z,4.33
2018-08-03T14:57:09.278Z,3.70
2018-08-03T14:59:38.761Z,3.87
2018-08-03T15:02:15.337Z,3.60
2018-08-03T15:04:49.071Z,3.70
2018-08-03T15:07:18.616Z,4.70
2018-08-03T15:09:50.370Z,3.87
2018-08-03T15:12:20.435Z,4.20
2018-08-03T15:14:51.271Z,3.83
2018-08-03T15:17:27.057Z,4.30
2018-08-03T15:19:56.333Z,3.60
2018-08-03T15:22:25.652Z,3.77
2018-08-03T15:24:54.915Z,3.80
2018-08-03T15:27:24.102Z,3.83
2018-08-03T15:29:53.577Z,3.30
2018-08-03T15:32:22.611Z,3.53
2018-08-03T15:34:52.024Z,3.80
2018-08-03T15:37:20.854Z,3.63
2018-08-03T15:39:49.874Z,4.20
2018-08-03T15:42:19.000Z,4.20
2018-08-03T15:44:47.869Z,4.47
2018-08-03T15:47:16.840Z,3.97
2018-08-03T15:49:45.921Z,3.43
2018-08-03T15:52:15.056Z,3.50
2018-08-03T15:54:44.146Z,4.33
2018-08-03T15:57:13.195Z,4.10
2018-08-03T15:59:42.266Z,3.77
2018-08-03T16:02:11.322Z,3.50
2018-08-03T16:04:40.422Z,4.00
2018-08-03T16:07:09.496Z,3.70
2018-08-03T16:09:38.567Z,3.53
2018-08-03T16:12:07.668Z,3.80
2018-08-03T16:14:36.798Z,3.60
2018-08-03T16:17:05.842Z,3.70
2018-08-03T16:19:35.044Z,3.60
2018-08-03T16:22:04.161Z,4.20
2018-08-03T16:24:33.270Z,3.70
2018-08-03T16:27:02.381Z,3.40
2018-08-03T16:29:31.216Z,3.47
2018-08-03T16:32:00.152Z,3.00
2018-08-03T16:34:28.999Z,3.10
2018-08-03T16:36:57.994Z,3.13
2018-08-03T16:39:27.027Z,3.03
2018-08-03T16:41:55.853Z,2.70
2018-08-03T16:44:24.791Z,3.20
2018-08-03T16:46:54.074Z,3.00
2018-08-03T16:49:23.185Z,2.60
2018-08-03T16:51:52.327Z,2.80
2018-08-03T16:54:21.398Z,2.90
2018-08-03T16:56:50.507Z,2.83
2018-08-03T16:59:19.550Z,2.97
2018-08-03T17:01:48.673Z,3.40
2018-08-03T17:04:17.515Z,3.20
2018-08-03T17:06:46.884Z,2.83
2018-08-03T17:09:15.978Z,3.23
2018-08-03T17:11:45.010Z,2.73
2018-08-03T17:14:14.109Z,3.50
2018-08-03T17:16:43.136Z,3.17
2018-08-03T17:19:11.960Z,2.87
2018-08-03T17:21:41.005Z,3.50
2018-08-03T17:24:09.879Z,3.00
2018-08-03T17:26:38.846Z,3.03
2018-08-03T17:29:08.133Z,2.90
2018-08-03T17:31:37.248Z,3.20
2018-08-03T17:34:06.323Z,3.00
2018-08-03T17:36:35.765Z,2.80
2018-08-03T17:39:06.410Z,3.10
2018-08-03T17:41:35.313Z,2.97
2018-08-03T17:44:04.455Z,3.37
2018-08-03T17:46:33.506Z,2.90
2018-08-03T17:49:02.743Z,3.23
2018-08-03T17:51:31.872Z,3.30
2018-08-03T17:54:00.768Z,3.13
2018-08-03T17:56:29.931Z,3.10
2018-08-03T17:58:58.967Z,3.73
2018-08-03T18:01:28.153Z,9.13
2018-08-03T18:03:57.265Z,4.13
2018-08-03T18:06:26.288Z,4.23
2018-08-03T18:08:55.378Z,3.37
2018-08-03T18:11:24.488Z,3.37
2018-08-03T18:13:53.583Z,3.60
2018-08-03T18:16:22.687Z,2.97
2018-08-03T18:18:51.801Z,3.00
2018-08-03T18:21:20.631Z,3.37
2018-08-03T18:23:49.727Z,3.37
2018-08-03T18:26:18.893Z,2.80
2018-08-03T18:28:48.033Z,2.80
2018-08-03T18:31:17.124Z,2.80
2018-08-03T18:33:46.369Z,2.70
2018-08-03T18:36:16.770Z,2.80
2018-08-03T18:38:45.866Z,2.73
2018-08-03T18:41:15.095Z,2.93
2018-08-03T18:43:44.205Z,3.97
2018-08-03T18:46:13.380Z,4.63
2018-08-03T18:48:42.254Z,5.60
2018-08-03T18:51:11.299Z,6.57
2018-08-03T18:53:40.381Z,3.83
2018-08-03T18:56:09.469Z,3.60
2018-08-03T18:58:38.729Z,3.50
2018-08-03T19:01:07.652Z,4.60
2018-08-03T19:03:36.593Z,4.43
2018-08-03T19:06:06.424Z,3.40
2018-08-03T19:08:35.598Z,2.90
2018-08-03T19:11:04.680Z,3.97
2018-08-03T19:13:33.867Z,3.57
2018-08-03T19:16:03.181Z,4.07
2018-08-03T19:18:32.247Z,4.60
2018-08-03T19:21:01.393Z,7.17
2018-08-03T19:23:30.289Z,7.20
2018-08-03T19:25:59.255Z,5.07
2018-08-03T19:28:28.375Z,4.80
2018-08-03T19:30:57.299Z,4.00
2018-08-03T19:33:26.353Z,4.17
2018-08-03T19:35:55.549Z,3.30
2018-08-03T19:38:24.496Z,3.37
2018-08-03T19:40:53.476Z,4.07
2018-08-03T19:43:22.649Z,3.80
2018-08-03T19:45:51.715Z,3.67
2018-08-03T19:48:20.611Z,3.67
2018-08-03T19:50:49.561Z,4.07
2018-08-03T19:53:18.617Z,3.93
2018-08-03T19:55:47.666Z,7.17
2018-08-03T19:58:16.772Z,4.13
2018-08-03T20:00:45.698Z,4.20
2018-08-03T20:03:14.450Z,3.87
2018-08-03T20:05:43.453Z,3.50
2018-08-03T20:08:12.656Z,3.80
2018-08-03T20:10:41.992Z,3.80
2018-08-03T20:13:11.197Z,3.73
2018-08-03T20:15:40.343Z,4.47
2018-08-03T20:18:09.501Z,6.77
2018-08-03T20:20:38.648Z,4.70
2018-08-03T20:23:07.986Z,4.93
2018-08-03T20:25:37.077Z,4.23
2018-08-03T20:28:06.193Z,3.73
2018-08-03T20:30:35.114Z,4.17
2018-08-03T20:33:04.083Z,3.50
2018-08-03T20:35:33.600Z,3.57
2018-08-03T20:38:02.809Z,3.60
2018-08-03T20:40:31.897Z,3.40
2018-08-03T20:43:00.999Z,3.93
2018-08-03T20:45:30.072Z,3.50
2018-08-03T20:47:59.180Z,3.77
2018-08-03T20:50:29.028Z,3.70
2018-08-03T20:52:58.126Z,4.30
2018-08-03T20:55:27.267Z,3.77
2018-08-03T20:57:56.021Z,4.47
2018-08-03T21:00:25.027Z,6.90
2018-08-03T21:02:53.817Z,3.70
2018-08-03T21:05:22.731Z,3.40
2018-08-03T21:07:55.012Z,4.60
2018-08-03T21:10:23.848Z,5.37
2018-08-03T21:12:52.880Z,3.23
2018-08-03T21:15:21.948Z,3.97
2018-08-03T21:17:51.015Z,4.00
2018-08-03T21:20:20.886Z,4.17
2018-08-03T21:22:50.028Z,3.80
2018-08-03T21:25:20.152Z,4.00
2018-08-03T21:27:49.227Z,3.20
2018-08-03T21:30:18.396Z,4.20
2018-08-03T21:32:47.435Z,3.33
2018-08-03T21:35:16.468Z,4.70
2018-08-03T21:37:45.569Z,4.30
2018-08-03T21:40:14.637Z,5.07
2018-08-03T21:42:43.693Z,4.03
2018-08-03T21:45:13.447Z,3.53
2018-08-03T21:47:42.611Z,3.20
2018-08-03T21:50:11.755Z,2.87
2018-08-03T21:52:40.874Z,3.30
2018-08-03T21:55:10.545Z,3.40
2018-08-03T21:57:39.597Z,3.40
2018-08-03T22:00:09.389Z,3.30
2018-08-03T22:02:38.365Z,3.20
2018-08-03T22:05:08.168Z,3.60
2018-08-03T22:07:56.598Z,3.37
2018-08-03T22:10:32.592Z,3.80
2018-08-03T22:13:01.700Z,3.40
2018-08-03T22:15:35.479Z,3.60
2018-08-03T22:18:06.916Z,3.50
2018-08-03T22:20:39.670Z,3.40
2018-08-03T22:23:09.128Z,3.50
2018-08-03T22:25:40.332Z,3.80
2018-08-03T22:28:10.512Z,3.57
2018-08-03T22:30:43.820Z,3.40
2018-08-03T22:33:16.526Z,3.13
2018-08-03T22:35:48.281Z,3.10
2018-08-03T22:38:18.239Z,3.50
2018-08-03T22:40:47.639Z,3.53
2018-08-03T22:43:19.388Z,3.17
2018-08-03T22:45:50.346Z,3.47
2018-08-03T22:48:19.726Z,3.43
2018-08-03T22:50:51.355Z,3.30
2018-08-03T22:53:24.322Z,3.70
2018-08-03T22:55:57.535Z,3.10
2018-08-03T22:58:29.686Z,3.40
2018-08-03T23:00:59.312Z,3.20
2018-08-03T23:03:31.285Z,2.90
2018-08-03T23:06:00.812Z,3.37
2018-08-03T23:08:32.251Z,4.00
2018-08-03T23:11:05.512Z,3.40
2018-08-03T23:13:37.250Z,3.43
2018-08-03T23:16:08.648Z,3.40
2018-08-03T23:18:40.211Z,3.20
2018-08-03T23:21:11.445Z,3.40
2018-08-03T23:23:43.463Z,3.27
2018-08-03T23:26:15.417Z,3.40
2018-08-03T23:28:46.022Z,3.03
2018-08-03T23:31:17.258Z,2.70
2018-08-03T23:33:47.685Z,2.80
2018-08-03T23:36:17.020Z,3.30
2018-08-03T23:38:46.164Z,2.93
2018-08-03T23:41:15.200Z,3.40
2018-08-03T23:43:44.050Z,4.23
2018-08-03T23:46:13.052Z,3.07
2018-08-03T23:48:45.035Z,3.10
2018-08-03T23:51:17.955Z,3.43
2018-08-03T23:53:50.732Z,3.47
2018-08-03T23:56:24.284Z,3.03
2018-08-03T23:58:56.527Z,3.00
